• °C
  • Pobieranie danych...
wx


PRINT OUT SECTION, show »

METAR EPBY 271500Z 11003KT 3800 BR FEW006 SCT012 BKN016 02/01 Q0995=

METAR EPGD 271500Z 26004KT 6000 -RA BKN005 02/01 Q0995 =

METAR EPKK 271500Z 12003KT 080V140 9999 BKN048 04/M01 Q0996 =

METAR EPKT 271500Z 19002KT 8000 BKN031 02/M01 Q0996 =

METAR EPLB 271500Z 25007KT 9999 SCT017 01/01 Q0997 =

METAR EPLL 271500Z 18003KT 130V230 8000 OVC006 00/M01 Q0996 =

METAR EPML 271500Z AUTO 14003KT 9999 BKN026/// BKN086/// BKN110///
04/01 Q0997=

METAR EPMO 271500Z 25008KT 6000 OVC007 01/01 Q0996 =

METAR EPPO 271500Z 13008KT 2300 BR OVC004 01/M00 Q0995 =

METAR EPRA 271500Z NIL=

METAR EPRZ 271500Z 20008KT 9999 OVC014 04/01 Q0998 =

METAR EPSC 271500Z 13006KT CAVOK 02/00 Q0994 =

METAR EPSY 271500Z 23004KT 9000 BKN012 01/01 Q0994=

METAR EPWA 271500Z 24006KT 9999 BKN009 02/01 Q0996 NOSIG=

METAR EPWR 271500Z 14008KT CAVOK 02/M01 Q0995 =

METAR EPZG 271500Z 10006KT 070V130 2400 BR NSC 01/01 Q0994 =
 METAR EPLL
Lokalizacja:EPLL Łódź
Czas:15:00 UTC
Średni kierunek wiatru:180 °
Średnia prędkość wiatru:3 węzłów
Kierunek wiatru zmienia się od:130 °
Kierunek wiatru zmienia się do:230 °
Widzialność:8 kilometrów
Pierwsza warstwa chmur:8/8, wysokość podstawy 600 FT
Temperatura powietrza:0 °C
Temperatura punktu rosy:-1 °C
Ciśnienie QNH:996 hPa



IMGW-PIB Sites